Mecks Corner, Pennsylvania
Current Conditions -  °F | °C
As of 2:56 PM on Tuesday 25 Nov 2014 (Local Time) from KCXY Reporting Station
Clear Clear  
Wind Chill: 53°   Ceiling: Unl
Heat Index: 53°   Visibility: 10mi
Dew Point: 29°   Wind: 7mph
Humidity: 40%   Direction: 250°WSW
Pressure: 30.02"   Gusts: NA
Location:  40.4189°N, 77.1972°W
Report Text: KCXY 251956Z 25006KT 10SM CLR 12/M02 A3002 RMK AO2 SLP167 T01171017
Loading
Personal Weather Stations






























Interactive Weather Map New forecast layout! Learn more

10-Day Weather Forecast

Advertisements
Track Severe Weather on mobile